sensor_id;sensor_type;location;lat;lon;timestamp;temperature;humidity
19106;DHT22;9685;54.338;18.672;2023-10-08T00:02:23;11.30;1.00
19106;DHT22;9685;54.338;18.672;2023-10-08T00:04:53;11.30;1.00
19106;DHT22;9685;54.338;18.672;2023-10-08T00:07:20;11.30;1.00
19106;DHT22;9685;54.338;18.672;2023-10-08T00:09:48;11.20;1.00
19106;DHT22;9685;54.338;18.672;2023-10-08T00:12:17;11.20;1.00
19106;DHT22;9685;54.338;18.672;2023-10-08T00:14:45;11.10;1.00
19106;DHT22;9685;54.338;18.672;2023-10-08T00:17:15;11.10;1.00
19106;DHT22;9685;54.338;18.672;2023-10-08T00:19:42;11.10;1.00
19106;DHT22;9685;54.338;18.672;2023-10-08T00:22:11;11.10;1.00
19106;DHT22;9685;54.338;18.672;2023-10-08T00:24:43;11.10;1.00
19106;DHT22;9685;54.338;18.672;2023-10-08T00:27:14;11.00;1.00
19106;DHT22;9685;54.338;18.672;2023-10-08T00:29:43;10.90;1.00
19106;DHT22;9685;54.338;18.672;2023-10-08T00:32:10;11.00;1.00
19106;DHT22;9685;54.338;18.672;2023-10-08T00:34:41;10.90;1.00
19106;DHT22;9685;54.338;18.672;2023-10-08T00:37:11;10.90;1.00
19106;DHT22;9685;54.338;18.672;2023-10-08T00:39:40;10.90;1.00
19106;DHT22;9685;54.338;18.672;2023-10-08T00:42:08;10.90;1.00
19106;DHT22;9685;54.338;18.672;2023-10-08T00:44:35;10.90;1.00
19106;DHT22;9685;54.338;18.672;2023-10-08T00:47:13;10.90;1.00
19106;DHT22;9685;54.338;18.672;2023-10-08T00:49:41;10.80;1.00
19106;DHT22;9685;54.338;18.672;2023-10-08T00:52:33;10.70;1.00
19106;DHT22;9685;54.338;18.672;2023-10-08T00:55:08;10.60;1.00
19106;DHT22;9685;54.338;18.672;2023-10-08T00:57:40;10.50;1.00
19106;DHT22;9685;54.338;18.672;2023-10-08T01:00:09;10.60;1.00
19106;DHT22;9685;54.338;18.672;2023-10-08T01:02:43;10.50;1.00
19106;DHT22;9685;54.338;18.672;2023-10-08T01:05:12;10.60;1.00
19106;DHT22;9685;54.338;18.672;2023-10-08T01:07:43;10.60;1.00
19106;DHT22;9685;54.338;18.672;2023-10-08T01:10:14;10.50;1.00
19106;DHT22;9685;54.338;18.672;2023-10-08T01:12:45;10.40;1.00
19106;DHT22;9685;54.338;18.672;2023-10-08T01:15:27;10.40;1.00
19106;DHT22;9685;54.338;18.672;2023-10-08T01:17:56;10.30;1.00
19106;DHT22;9685;54.338;18.672;2023-10-08T01:20:26;10.20;1.00
19106;DHT22;9685;54.338;18.672;2023-10-08T01:23:03;10.20;1.00
19106;DHT22;9685;54.338;18.672;2023-10-08T01:25:39;10.20;1.00
19106;DHT22;9685;54.338;18.672;2023-10-08T01:28:07;10.20;1.00
19106;DHT22;9685;54.338;18.672;2023-10-08T01:30:40;10.10;1.00
19106;DHT22;9685;54.338;18.672;2023-10-08T01:33:08;10.10;1.00
19106;DHT22;9685;54.338;18.672;2023-10-08T01:35:40;10.10;1.00
19106;DHT22;9685;54.338;18.672;2023-10-08T01:38:08;10.20;1.00
19106;DHT22;9685;54.338;18.672;2023-10-08T01:40:40;10.10;1.00
19106;DHT22;9685;54.338;18.672;2023-10-08T01:43:07;10.10;1.00
19106;DHT22;9685;54.338;18.672;2023-10-08T01:45:36;10.10;1.00
19106;DHT22;9685;54.338;18.672;2023-10-08T01:48:06;10.10;10.00
19106;DHT22;9685;54.338;18.672;2023-10-08T01:50:35;10.00;1.00
19106;DHT22;9685;54.338;18.672;2023-10-08T01:53:03;10.00;1.00
19106;DHT22;9685;54.338;18.672;2023-10-08T01:55:35;9.90;1.00
19106;DHT22;9685;54.338;18.672;2023-10-08T01:58:15;10.00;1.00
19106;DHT22;9685;54.338;18.672;2023-10-08T02:00:43;10.00;1.00
19106;DHT22;9685;54.338;18.672;2023-10-08T02:03:11;9.90;1.00
19106;DHT22;9685;54.338;18.672;2023-10-08T02:05:41;9.90;1.00
19106;DHT22;9685;54.338;18.672;2023-10-08T02:08:08;9.90;1.00
19106;DHT22;9685;54.338;18.672;2023-10-08T02:10:38;9.80;1.00
19106;DHT22;9685;54.338;18.672;2023-10-08T02:13:06;9.70;1.00
19106;DHT22;9685;54.338;18.672;2023-10-08T02:15:34;9.70;1.00
19106;DHT22;9685;54.338;18.672;2023-10-08T02:18:02;9.70;1.00
19106;DHT22;9685;54.338;18.672;2023-10-08T02:20:30;9.70;1.00
19106;DHT22;9685;54.338;18.672;2023-10-08T02:22:56;9.60;1.00
19106;DHT22;9685;54.338;18.672;2023-10-08T02:25:25;9.60;1.00
19106;DHT22;9685;54.338;18.672;2023-10-08T02:27:53;9.70;1.00
19106;DHT22;9685;54.338;18.672;2023-10-08T02:30:20;9.50;1.00
19106;DHT22;9685;54.338;18.672;2023-10-08T02:32:47;9.40;1.00
19106;DHT22;9685;54.338;18.672;2023-10-08T02:35:15;9.50;1.00
19106;DHT22;9685;54.338;18.672;2023-10-08T02:37:42;9.50;1.00
19106;DHT22;9685;54.338;18.672;2023-10-08T02:40:12;9.40;1.00
19106;DHT22;9685;54.338;18.672;2023-10-08T02:42:46;9.40;1.00
19106;DHT22;9685;54.338;18.672;2023-10-08T02:45:14;9.40;1.00
19106;DHT22;9685;54.338;18.672;2023-10-08T02:47:43;9.40;1.00
19106;DHT22;9685;54.338;18.672;2023-10-08T02:50:11;9.40;1.00
19106;DHT22;9685;54.338;18.672;2023-10-08T02:52:42;9.40;1.00
19106;DHT22;9685;54.338;18.672;2023-10-08T02:55:11;9.50;1.00
19106;DHT22;9685;54.338;18.672;2023-10-08T02:57:50;9.40;1.00
19106;DHT22;9685;54.338;18.672;2023-10-08T03:00:19;9.50;1.00
19106;DHT22;9685;54.338;18.672;2023-10-08T03:02:46;9.50;1.00
19106;DHT22;9685;54.338;18.672;2023-10-08T03:05:13;9.40;1.00
19106;DHT22;9685;54.338;18.672;2023-10-08T03:07:43;9.40;1.00
19106;DHT22;9685;54.338;18.672;2023-10-08T03:10:10;9.30;1.00
19106;DHT22;9685;54.338;18.672;2023-10-08T03:12:44;9.20;1.00
19106;DHT22;9685;54.338;18.672;2023-10-08T03:15:14;9.30;1.00
19106;DHT22;9685;54.338;18.672;2023-10-08T03:17:55;9.30;1.00
19106;DHT22;9685;54.338;18.672;2023-10-08T03:20:23;9.20;1.00
19106;DHT22;9685;54.338;18.672;2023-10-08T03:23:04;9.30;1.00
19106;DHT22;9685;54.338;18.672;2023-10-08T03:25:38;9.30;1.00
19106;DHT22;9685;54.338;18.672;2023-10-08T03:28:07;9.30;1.00
19106;DHT22;9685;54.338;18.672;2023-10-08T03:30:38;9.20;1.00
19106;DHT22;9685;54.338;18.672;2023-10-08T03:33:16;9.20;1.00
19106;DHT22;9685;54.338;18.672;2023-10-08T03:35:48;9.20;1.00
19106;DHT22;9685;54.338;18.672;2023-10-08T03:38:18;9.20;1.00
19106;DHT22;9685;54.338;18.672;2023-10-08T03:40:49;9.20;1.00
19106;DHT22;9685;54.338;18.672;2023-10-08T03:43:20;9.10;1.00
19106;DHT22;9685;54.338;18.672;2023-10-08T03:45:59;9.10;1.00
19106;DHT22;9685;54.338;18.672;2023-10-08T03:48:33;9.00;1.00
19106;DHT22;9685;54.338;18.672;2023-10-08T03:51:02;9.00;1.00
19106;DHT22;9685;54.338;18.672;2023-10-08T03:53:37;9.00;1.00
19106;DHT22;9685;54.338;18.672;2023-10-08T03:56:23;8.90;1.00
19106;DHT22;9685;54.338;18.672;2023-10-08T03:58:50;8.90;1.00
19106;DHT22;9685;54.338;18.672;2023-10-08T04:01:19;8.80;1.00
19106;DHT22;9685;54.338;18.672;2023-10-08T04:03:48;8.80;1.00
19106;DHT22;9685;54.338;18.672;2023-10-08T04:06:24;8.80;1.00
19106;DHT22;9685;54.338;18.672;2023-10-08T04:08:56;8.80;1.00
19106;DHT22;9685;54.338;18.672;2023-10-08T04:11:37;8.80;1.00
19106;DHT22;9685;54.338;18.672;2023-10-08T04:14:17;8.90;1.00
19106;DHT22;9685;54.338;18.672;2023-10-08T04:16:45;8.90;1.00
19106;DHT22;9685;54.338;18.672;2023-10-08T04:19:13;8.90;1.00
19106;DHT22;9685;54.338;18.672;2023-10-08T04:21:44;8.80;1.00
19106;DHT22;9685;54.338;18.672;2023-10-08T04:24:11;8.80;1.00
19106;DHT22;9685;54.338;18.672;2023-10-08T04:26:40;8.70;1.00
19106;DHT22;9685;54.338;18.672;2023-10-08T04:29:08;8.70;1.00
19106;DHT22;9685;54.338;18.672;2023-10-08T04:31:35;8.70;1.00
19106;DHT22;9685;54.338;18.672;2023-10-08T04:34:10;8.70;1.00
19106;DHT22;9685;54.338;18.672;2023-10-08T04:36:43;8.70;1.00
19106;DHT22;9685;54.338;18.672;2023-10-08T04:39:11;8.80;1.00
19106;DHT22;9685;54.338;18.672;2023-10-08T04:41:41;8.80;1.00
19106;DHT22;9685;54.338;18.672;2023-10-08T04:44:09;8.80;1.00
19106;DHT22;9685;54.338;18.672;2023-10-08T04:46:41;8.70;1.00
19106;DHT22;9685;54.338;18.672;2023-10-08T04:49:17;8.70;1.00
19106;DHT22;9685;54.338;18.672;2023-10-08T04:51:55;8.70;1.00
19106;DHT22;9685;54.338;18.672;2023-10-08T04:54:24;8.80;1.00
19106;DHT22;9685;54.338;18.672;2023-10-08T04:56:56;8.80;1.00
19106;DHT22;9685;54.338;18.672;2023-10-08T04:59:24;8.90;1.00
19106;DHT22;9685;54.338;18.672;2023-10-08T05:01:58;8.80;1.00
19106;DHT22;9685;54.338;18.672;2023-10-08T05:04:47;8.80;1.00
19106;DHT22;9685;54.338;18.672;2023-10-08T05:07:45;8.80;1.00
19106;DHT22;9685;54.338;18.672;2023-10-08T05:10:34;8.80;1.00
19106;DHT22;9685;54.338;18.672;2023-10-08T05:13:19;8.80;1.00
19106;DHT22;9685;54.338;18.672;2023-10-08T05:15:56;8.70;1.00
19106;DHT22;9685;54.338;18.672;2023-10-08T05:18:31;8.80;1.00
19106;DHT22;9685;54.338;18.672;2023-10-08T05:21:12;8.80;1.00
19106;DHT22;9685;54.338;18.672;2023-10-08T05:23:52;8.80;1.00
19106;DHT22;9685;54.338;18.672;2023-10-08T05:26:41;8.80;1.00
19106;DHT22;9685;54.338;18.672;2023-10-08T05:29:15;8.80;1.00
19106;DHT22;9685;54.338;18.672;2023-10-08T05:32:10;8.90;1.00
19106;DHT22;9685;54.338;18.672;2023-10-08T05:34:54;8.80;1.00
19106;DHT22;9685;54.338;18.672;2023-10-08T05:37:42;8.80;1.00
19106;DHT22;9685;54.338;18.672;2023-10-08T05:40:14;8.80;1.00
19106;DHT22;9685;54.338;18.672;2023-10-08T05:43:07;8.80;1.00
19106;DHT22;9685;54.338;18.672;2023-10-08T05:45:48;8.80;1.00
19106;DHT22;9685;54.338;18.672;2023-10-08T05:48:39;8.90;1.00
19106;DHT22;9685;54.338;18.672;2023-10-08T05:51:11;8.90;1.00
19106;DHT22;9685;54.338;18.672;2023-10-08T05:53:49;9.00;1.00
19106;DHT22;9685;54.338;18.672;2023-10-08T05:56:23;9.00;1.00
19106;DHT22;9685;54.338;18.672;2023-10-08T05:59:07;9.00;1.00
19106;DHT22;9685;54.338;18.672;2023-10-08T06:01:44;9.10;1.00
19106;DHT22;9685;54.338;18.672;2023-10-08T06:04:12;9.20;1.00
19106;DHT22;9685;54.338;18.672;2023-10-08T06:07:08;9.20;1.00
19106;DHT22;9685;54.338;18.672;2023-10-08T06:09:42;9.30;1.00
19106;DHT22;9685;54.338;18.672;2023-10-08T06:12:17;9.40;1.00
19106;DHT22;9685;54.338;18.672;2023-10-08T06:14:55;9.40;1.00
19106;DHT22;9685;54.338;18.672;2023-10-08T06:17:37;9.50;1.00
19106;DHT22;9685;54.338;18.672;2023-10-08T06:20:22;9.50;1.00
19106;DHT22;9685;54.338;18.672;2023-10-08T06:22:52;9.70;1.00
19106;DHT22;9685;54.338;18.672;2023-10-08T06:25:20;9.70;1.00
19106;DHT22;9685;54.338;18.672;2023-10-08T06:27:51;9.80;1.00
19106;DHT22;9685;54.338;18.672;2023-10-08T06:30:23;9.90;1.00
19106;DHT22;9685;54.338;18.672;2023-10-08T06:32:55;10.00;1.00
19106;DHT22;9685;54.338;18.672;2023-10-08T06:35:22;10.00;1.00
19106;DHT22;9685;54.338;18.672;2023-10-08T06:37:53;10.00;1.00
19106;DHT22;9685;54.338;18.672;2023-10-08T06:40:25;10.00;1.00
19106;DHT22;9685;54.338;18.672;2023-10-08T06:43:11;10.00;1.00
19106;DHT22;9685;54.338;18.672;2023-10-08T06:45:40;10.10;1.00
19106;DHT22;9685;54.338;18.672;2023-10-08T06:48:07;10.10;1.00
19106;DHT22;9685;54.338;18.672;2023-10-08T06:50:34;10.10;1.00
19106;DHT22;9685;54.338;18.672;2023-10-08T06:53:02;10.20;1.00
19106;DHT22;9685;54.338;18.672;2023-10-08T06:55:33;10.20;1.00
19106;DHT22;9685;54.338;18.672;2023-10-08T06:58:01;10.40;1.00
19106;DHT22;9685;54.338;18.672;2023-10-08T07:00:34;10.50;1.00
19106;DHT22;9685;54.338;18.672;2023-10-08T07:03:13;10.50;1.00
19106;DHT22;9685;54.338;18.672;2023-10-08T07:05:42;10.50;1.00
19106;DHT22;9685;54.338;18.672;2023-10-08T07:08:11;10.50;1.00
19106;DHT22;9685;54.338;18.672;2023-10-08T07:10:40;10.70;1.00
19106;DHT22;9685;54.338;18.672;2023-10-08T07:13:08;10.70;1.00
19106;DHT22;9685;54.338;18.672;2023-10-08T07:15:37;10.80;1.00
19106;DHT22;9685;54.338;18.672;2023-10-08T07:18:07;10.90;1.00
19106;DHT22;9685;54.338;18.672;2023-10-08T07:20:39;10.90;1.00
19106;DHT22;9685;54.338;18.672;2023-10-08T07:23:08;11.00;1.00
19106;DHT22;9685;54.338;18.672;2023-10-08T07:25:53;11.10;1.00
19106;DHT22;9685;54.338;18.672;2023-10-08T07:28:24;11.10;1.00
19106;DHT22;9685;54.338;18.672;2023-10-08T07:30:53;11.10;1.00
19106;DHT22;9685;54.338;18.672;2023-10-08T07:33:20;11.20;1.00
19106;DHT22;9685;54.338;18.672;2023-10-08T07:35:51;11.30;1.00
19106;DHT22;9685;54.338;18.672;2023-10-08T07:38:27;11.40;1.00
19106;DHT22;9685;54.338;18.672;2023-10-08T07:40:56;11.30;1.00
19106;DHT22;9685;54.338;18.672;2023-10-08T07:43:23;11.40;1.00
19106;DHT22;9685;54.338;18.672;2023-10-08T07:45:50;11.60;1.00
19106;DHT22;9685;54.338;18.672;2023-10-08T07:48:21;11.70;1.00
19106;DHT22;9685;54.338;18.672;2023-10-08T07:50:55;11.80;1.00
19106;DHT22;9685;54.338;18.672;2023-10-08T07:53:22;11.90;1.00
19106;DHT22;9685;54.338;18.672;2023-10-08T07:55:50;11.90;1.00
19106;DHT22;9685;54.338;18.672;2023-10-08T07:58:18;12.00;1.00
19106;DHT22;9685;54.338;18.672;2023-10-08T08:00:45;12.10;1.00
19106;DHT22;9685;54.338;18.672;2023-10-08T08:03:21;12.20;1.00
19106;DHT22;9685;54.338;18.672;2023-10-08T08:05:49;12.20;1.00
19106;DHT22;9685;54.338;18.672;2023-10-08T08:08:20;12.20;1.00
19106;DHT22;9685;54.338;18.672;2023-10-08T08:10:49;12.20;1.00
19106;DHT22;9685;54.338;18.672;2023-10-08T08:13:26;12.20;1.00
19106;DHT22;9685;54.338;18.672;2023-10-08T08:15:57;12.10;1.00
19106;DHT22;9685;54.338;18.672;2023-10-08T08:18:27;12.10;1.00
19106;DHT22;9685;54.338;18.672;2023-10-08T08:21:00;12.10;1.00
19106;DHT22;9685;54.338;18.672;2023-10-08T08:23:29;12.20;1.00
19106;DHT22;9685;54.338;18.672;2023-10-08T08:25:56;12.30;1.00
19106;DHT22;9685;54.338;18.672;2023-10-08T08:28:37;12.50;1.00
19106;DHT22;9685;54.338;18.672;2023-10-08T08:31:05;12.60;1.00
19106;DHT22;9685;54.338;18.672;2023-10-08T08:33:43;12.70;1.00
19106;DHT22;9685;54.338;18.672;2023-10-08T08:36:29;12.80;1.00
19106;DHT22;9685;54.338;18.672;2023-10-08T08:38:57;12.60;1.00
19106;DHT22;9685;54.338;18.672;2023-10-08T08:41:24;12.60;1.00
19106;DHT22;9685;54.338;18.672;2023-10-08T08:43:52;12.80;1.00
19106;DHT22;9685;54.338;18.672;2023-10-08T08:46:31;13.10;1.00
19106;DHT22;9685;54.338;18.672;2023-10-08T08:49:04;13.10;1.00
19106;DHT22;9685;54.338;18.672;2023-10-08T08:51:31;13.00;1.00
19106;DHT22;9685;54.338;18.672;2023-10-08T08:53:58;12.90;1.00
19106;DHT22;9685;54.338;18.672;2023-10-08T08:56:26;13.00;1.00
19106;DHT22;9685;54.338;18.672;2023-10-08T08:58:55;13.00;1.00
19106;DHT22;9685;54.338;18.672;2023-10-08T09:01:24;13.00;1.00
19106;DHT22;9685;54.338;18.672;2023-10-08T09:03:51;12.90;1.00
19106;DHT22;9685;54.338;18.672;2023-10-08T09:06:19;12.80;1.00
19106;DHT22;9685;54.338;18.672;2023-10-08T09:08:47;13.00;1.00
19106;DHT22;9685;54.338;18.672;2023-10-08T09:11:16;13.20;1.00
19106;DHT22;9685;54.338;18.672;2023-10-08T09:13:43;13.40;1.00
19106;DHT22;9685;54.338;18.672;2023-10-08T09:16:12;13.60;1.00
19106;DHT22;9685;54.338;18.672;2023-10-08T09:18:42;13.70;1.00
19106;DHT22;9685;54.338;18.672;2023-10-08T09:21:11;14.00;1.00
19106;DHT22;9685;54.338;18.672;2023-10-08T09:23:41;14.30;1.00
19106;DHT22;9685;54.338;18.672;2023-10-08T09:26:13;14.30;1.00
19106;DHT22;9685;54.338;18.672;2023-10-08T09:28:44;14.50;1.00
19106;DHT22;9685;54.338;18.672;2023-10-08T09:31:13;14.50;1.00
19106;DHT22;9685;54.338;18.672;2023-10-08T09:33:40;14.60;1.00
19106;DHT22;9685;54.338;18.672;2023-10-08T09:36:10;14.60;1.00
19106;DHT22;9685;54.338;18.672;2023-10-08T09:38:44;14.60;1.00
19106;DHT22;9685;54.338;18.672;2023-10-08T09:41:13;14.50;1.00
19106;DHT22;9685;54.338;18.672;2023-10-08T09:43:41;14.50;1.00
19106;DHT22;9685;54.338;18.672;2023-10-08T09:46:13;14.60;1.00
19106;DHT22;9685;54.338;18.672;2023-10-08T09:48:47;14.90;1.00
19106;DHT22;9685;54.338;18.672;2023-10-08T09:51:15;15.30;1.00
19106;DHT22;9685;54.338;18.672;2023-10-08T09:53:51;15.50;1.00
19106;DHT22;9685;54.338;18.672;2023-10-08T09:56:20;15.50;1.00
19106;DHT22;9685;54.338;18.672;2023-10-08T09:58:47;15.70;1.00
19106;DHT22;9685;54.338;18.672;2023-10-08T10:01:16;15.90;1.00
19106;DHT22;9685;54.338;18.672;2023-10-08T10:03:44;16.10;1.00
19106;DHT22;9685;54.338;18.672;2023-10-08T10:06:15;16.30;1.00
19106;DHT22;9685;54.338;18.672;2023-10-08T10:08:45;16.90;1.00
19106;DHT22;9685;54.338;18.672;2023-10-08T10:11:12;17.30;1.00
19106;DHT22;9685;54.338;18.672;2023-10-08T10:13:41;17.40;1.00
19106;DHT22;9685;54.338;18.672;2023-10-08T10:16:10;17.10;1.00
19106;DHT22;9685;54.338;18.672;2023-10-08T10:18:39;17.00;1.00
19106;DHT22;9685;54.338;18.672;2023-10-08T10:21:31;17.30;1.00
19106;DHT22;9685;54.338;18.672;2023-10-08T10:24:01;17.50;1.00
19106;DHT22;9685;54.338;18.672;2023-10-08T10:26:32;17.80;1.00
19106;DHT22;9685;54.338;18.672;2023-10-08T10:29:21;17.60;1.00
19106;DHT22;9685;54.338;18.672;2023-10-08T10:31:49;17.80;1.00
19106;DHT22;9685;54.338;18.672;2023-10-08T10:34:20;17.20;1.00
19106;DHT22;9685;54.338;18.672;2023-10-08T10:36:50;17.00;1.00
19106;DHT22;9685;54.338;18.672;2023-10-08T10:39:23;17.00;1.00
19106;DHT22;9685;54.338;18.672;2023-10-08T10:41:56;17.40;1.00
19106;DHT22;9685;54.338;18.672;2023-10-08T10:44:36;17.70;1.00
19106;DHT22;9685;54.338;18.672;2023-10-08T10:47:04;17.60;1.00
19106;DHT22;9685;54.338;18.672;2023-10-08T10:49:54;17.60;1.00
19106;DHT22;9685;54.338;18.672;2023-10-08T10:52:41;17.90;1.00
19106;DHT22;9685;54.338;18.672;2023-10-08T10:55:14;18.30;1.00
19106;DHT22;9685;54.338;18.672;2023-10-08T10:57:57;18.80;1.00
19106;DHT22;9685;54.338;18.672;2023-10-08T11:00:30;18.60;1.00
19106;DHT22;9685;54.338;18.672;2023-10-08T11:03:24;18.60;1.00
19106;DHT22;9685;54.338;18.672;2023-10-08T11:05:53;18.50;1.00
19106;DHT22;9685;54.338;18.672;2023-10-08T11:08:22;18.40;1.00
19106;DHT22;9685;54.338;18.672;2023-10-08T11:10:52;18.00;1.00
19106;DHT22;9685;54.338;18.672;2023-10-08T11:13:25;17.50;1.00
19106;DHT22;9685;54.338;18.672;2023-10-08T11:15:54;17.60;1.00
19106;DHT22;9685;54.338;18.672;2023-10-08T11:18:25;17.40;1.00
19106;DHT22;9685;54.338;18.672;2023-10-08T11:21:05;17.30;1.00
19106;DHT22;9685;54.338;18.672;2023-10-08T11:23:42;18.00;1.00
19106;DHT22;9685;54.338;18.672;2023-10-08T11:26:10;18.50;1.00
19106;DHT22;9685;54.338;18.672;2023-10-08T11:28:38;18.40;1.00
19106;DHT22;9685;54.338;18.672;2023-10-08T11:31:10;18.10;1.00
19106;DHT22;9685;54.338;18.672;2023-10-08T11:33:40;18.40;1.00
19106;DHT22;9685;54.338;18.672;2023-10-08T11:36:09;18.40;1.00
19106;DHT22;9685;54.338;18.672;2023-10-08T11:38:44;18.80;1.00
19106;DHT22;9685;54.338;18.672;2023-10-08T11:41:15;18.90;1.00
19106;DHT22;9685;54.338;18.672;2023-10-08T11:43:53;19.20;1.00
19106;DHT22;9685;54.338;18.672;2023-10-08T11:46:24;19.40;1.00
19106;DHT22;9685;54.338;18.672;2023-10-08T11:48:58;18.70;1.00
19106;DHT22;9685;54.338;18.672;2023-10-08T11:51:30;18.30;1.00
19106;DHT22;9685;54.338;18.672;2023-10-08T11:53:58;18.50;1.00
19106;DHT22;9685;54.338;18.672;2023-10-08T11:56:28;18.80;1.00
19106;DHT22;9685;54.338;18.672;2023-10-08T11:58:55;19.00;1.00
19106;DHT22;9685;54.338;18.672;2023-10-08T12:01:23;19.20;1.00
19106;DHT22;9685;54.338;18.672;2023-10-08T12:03:50;18.90;1.00
19106;DHT22;9685;54.338;18.672;2023-10-08T12:06:17;18.50;1.00
19106;DHT22;9685;54.338;18.672;2023-10-08T12:08:45;18.30;1.00
19106;DHT22;9685;54.338;18.672;2023-10-08T12:11:13;18.70;1.00
19106;DHT22;9685;54.338;18.672;2023-10-08T12:13:42;18.90;1.00
19106;DHT22;9685;54.338;18.672;2023-10-08T12:16:13;18.90;1.00
19106;DHT22;9685;54.338;18.672;2023-10-08T12:18:45;19.20;1.00
19106;DHT22;9685;54.338;18.672;2023-10-08T12:21:14;18.30;1.00
19106;DHT22;9685;54.338;18.672;2023-10-08T12:23:43;17.70;1.00
19106;DHT22;9685;54.338;18.672;2023-10-08T12:26:12;17.50;1.00
19106;DHT22;9685;54.338;18.672;2023-10-08T12:28:43;17.40;1.00
19106;DHT22;9685;54.338;18.672;2023-10-08T12:31:12;17.60;1.00
19106;DHT22;9685;54.338;18.672;2023-10-08T12:33:41;17.50;1.00
19106;DHT22;9685;54.338;18.672;2023-10-08T12:36:10;18.00;1.00
19106;DHT22;9685;54.338;18.672;2023-10-08T12:38:38;18.40;1.00
19106;DHT22;9685;54.338;18.672;2023-10-08T12:41:07;18.80;1.00
19106;DHT22;9685;54.338;18.672;2023-10-08T12:43:40;19.10;1.00
19106;DHT22;9685;54.338;18.672;2023-10-08T12:46:12;18.60;1.00
19106;DHT22;9685;54.338;18.672;2023-10-08T12:48:44;18.40;1.00
19106;DHT22;9685;54.338;18.672;2023-10-08T12:51:14;19.00;1.00
19106;DHT22;9685;54.338;18.672;2023-10-08T12:53:41;18.70;1.00
19106;DHT22;9685;54.338;18.672;2023-10-08T12:56:16;18.60;1.00
19106;DHT22;9685;54.338;18.672;2023-10-08T12:58:47;18.60;1.00
19106;DHT22;9685;54.338;18.672;2023-10-08T13:01:16;18.50;1.00
19106;DHT22;9685;54.338;18.672;2023-10-08T13:03:45;18.80;1.00
19106;DHT22;9685;54.338;18.672;2023-10-08T13:06:15;19.00;1.00
19106;DHT22;9685;54.338;18.672;2023-10-08T13:08:48;19.30;1.00
19106;DHT22;9685;54.338;18.672;2023-10-08T13:11:15;18.40;1.00
19106;DHT22;9685;54.338;18.672;2023-10-08T13:13:48;17.90;1.00
19106;DHT22;9685;54.338;18.672;2023-10-08T13:16:17;17.90;1.00
19106;DHT22;9685;54.338;18.672;2023-10-08T13:18:44;18.30;1.00
19106;DHT22;9685;54.338;18.672;2023-10-08T13:21:11;18.30;1.00
19106;DHT22;9685;54.338;18.672;2023-10-08T13:23:38;18.30;1.00
19106;DHT22;9685;54.338;18.672;2023-10-08T13:26:05;19.10;1.00
19106;DHT22;9685;54.338;18.672;2023-10-08T13:28:32;19.00;1.00
19106;DHT22;9685;54.338;18.672;2023-10-08T13:31:00;19.00;1.00
19106;DHT22;9685;54.338;18.672;2023-10-08T13:33:36;19.20;1.00
19106;DHT22;9685;54.338;18.672;2023-10-08T13:36:08;19.40;1.00
19106;DHT22;9685;54.338;18.672;2023-10-08T13:38:35;19.10;1.00
19106;DHT22;9685;54.338;18.672;2023-10-08T13:41:03;18.40;1.00
19106;DHT22;9685;54.338;18.672;2023-10-08T13:43:32;18.00;1.00
19106;DHT22;9685;54.338;18.672;2023-10-08T13:46:04;18.10;1.00
19106;DHT22;9685;54.338;18.672;2023-10-08T13:48:33;18.40;1.00
19106;DHT22;9685;54.338;18.672;2023-10-08T13:51:03;18.70;1.00
19106;DHT22;9685;54.338;18.672;2023-10-08T13:53:31;18.30;1.00
19106;DHT22;9685;54.338;18.672;2023-10-08T13:55:59;17.90;1.00
19106;DHT22;9685;54.338;18.672;2023-10-08T13:58:30;17.60;1.00
19106;DHT22;9685;54.338;18.672;2023-10-08T14:01:00;17.70;1.00
19106;DHT22;9685;54.338;18.672;2023-10-08T14:03:30;17.70;1.00
19106;DHT22;9685;54.338;18.672;2023-10-08T14:05:57;17.60;1.00
19106;DHT22;9685;54.338;18.672;2023-10-08T14:08:30;17.60;1.00
19106;DHT22;9685;54.338;18.672;2023-10-08T14:10:57;17.80;1.00
19106;DHT22;9685;54.338;18.672;2023-10-08T14:13:29;17.70;1.00
19106;DHT22;9685;54.338;18.672;2023-10-08T14:15:57;17.60;1.00
19106;DHT22;9685;54.338;18.672;2023-10-08T14:18:24;17.20;1.00
19106;DHT22;9685;54.338;18.672;2023-10-08T14:20:54;17.00;1.00
19106;DHT22;9685;54.338;18.672;2023-10-08T14:23:21;16.80;1.00
19106;DHT22;9685;54.338;18.672;2023-10-08T14:25:52;16.70;1.00
19106;DHT22;9685;54.338;18.672;2023-10-08T14:28:28;16.70;1.00
19106;DHT22;9685;54.338;18.672;2023-10-08T14:31:08;16.30;1.00
19106;DHT22;9685;54.338;18.672;2023-10-08T14:33:41;16.00;1.00
19106;DHT22;9685;54.338;18.672;2023-10-08T14:36:09;16.00;1.00
19106;DHT22;9685;54.338;18.672;2023-10-08T14:38:54;15.90;1.00
19106;DHT22;9685;54.338;18.672;2023-10-08T14:41:40;15.90;1.00
19106;DHT22;9685;54.338;18.672;2023-10-08T14:44:24;16.00;1.00
19106;DHT22;9685;54.338;18.672;2023-10-08T14:46:51;16.10;1.00
19106;DHT22;9685;54.338;18.672;2023-10-08T14:49:20;16.00;1.00
19106;DHT22;9685;54.338;18.672;2023-10-08T14:51:48;15.90;1.00
19106;DHT22;9685;54.338;18.672;2023-10-08T14:54:15;15.60;1.00
19106;DHT22;9685;54.338;18.672;2023-10-08T14:56:44;15.50;1.00
19106;DHT22;9685;54.338;18.672;2023-10-08T14:59:11;15.50;1.00
19106;DHT22;9685;54.338;18.672;2023-10-08T15:01:38;15.40;1.00
19106;DHT22;9685;54.338;18.672;2023-10-08T15:04:05;15.40;1.00
19106;DHT22;9685;54.338;18.672;2023-10-08T15:06:37;15.40;1.00
19106;DHT22;9685;54.338;18.672;2023-10-08T15:09:04;15.30;1.00
19106;DHT22;9685;54.338;18.672;2023-10-08T15:11:33;15.50;1.00
19106;DHT22;9685;54.338;18.672;2023-10-08T15:14:03;15.10;1.00
19106;DHT22;9685;54.338;18.672;2023-10-08T15:16:35;14.90;1.00
19106;DHT22;9685;54.338;18.672;2023-10-08T15:19:02;14.70;1.00
19106;DHT22;9685;54.338;18.672;2023-10-08T15:21:30;14.70;1.00
19106;DHT22;9685;54.338;18.672;2023-10-08T15:23:59;14.70;1.00
19106;DHT22;9685;54.338;18.672;2023-10-08T15:26:31;14.50;1.00
19106;DHT22;9685;54.338;18.672;2023-10-08T15:28:58;14.30;1.00
19106;DHT22;9685;54.338;18.672;2023-10-08T15:31:26;14.10;1.00
19106;DHT22;9685;54.338;18.672;2023-10-08T15:33:53;13.90;1.00
19106;DHT22;9685;54.338;18.672;2023-10-08T15:36:20;13.70;1.00
19106;DHT22;9685;54.338;18.672;2023-10-08T15:38:47;13.50;1.00
19106;DHT22;9685;54.338;18.672;2023-10-08T15:41:14;13.50;1.00
19106;DHT22;9685;54.338;18.672;2023-10-08T15:43:49;13.30;1.00
19106;DHT22;9685;54.338;18.672;2023-10-08T15:46:17;13.10;1.00
19106;DHT22;9685;54.338;18.672;2023-10-08T15:48:46;12.90;1.00
19106;DHT22;9685;54.338;18.672;2023-10-08T15:51:12;12.60;1.00
19106;DHT22;9685;54.338;18.672;2023-10-08T15:53:39;12.40;1.00
19106;DHT22;9685;54.338;18.672;2023-10-08T15:56:06;12.40;1.00
19106;DHT22;9685;54.338;18.672;2023-10-08T15:58:33;12.30;1.00
19106;DHT22;9685;54.338;18.672;2023-10-08T16:01:00;12.30;1.00
19106;DHT22;9685;54.338;18.672;2023-10-08T16:03:27;12.20;1.00
19106;DHT22;9685;54.338;18.672;2023-10-08T16:05:55;12.10;1.00
19106;DHT22;9685;54.338;18.672;2023-10-08T16:08:22;12.30;1.00
19106;DHT22;9685;54.338;18.672;2023-10-08T16:10:49;12.20;1.00
19106;DHT22;9685;54.338;18.672;2023-10-08T16:13:16;12.10;1.00
19106;DHT22;9685;54.338;18.672;2023-10-08T16:15:43;12.00;1.00
19106;DHT22;9685;54.338;18.672;2023-10-08T16:18:10;12.00;1.00